createdAt,value
2023-05-23T00:01:40.485Z,92.54
2023-05-23T00:06:35.547Z,93.45
2023-05-23T00:11:29.269Z,94.87
2023-05-23T00:16:23.927Z,93.07
2023-05-23T00:21:17.015Z,97.39
2023-05-23T00:26:10.662Z,98.97
2023-05-23T00:31:06.452Z,99.75
2023-05-23T00:36:02.167Z,96.23
2023-05-23T00:40:55.041Z,100.00
2023-05-23T00:45:48.596Z,100.00
2023-05-23T00:50:41.358Z,100.00
2023-05-23T00:55:33.889Z,98.81
2023-05-23T01:00:26.251Z,94.06
2023-05-23T01:05:25.594Z,90.34
2023-05-23T01:10:21.475Z,88.17
2023-05-23T01:15:19.115Z,85.36
2023-05-23T01:20:35.801Z,84.72
2023-05-23T01:25:47.499Z,84.80
2023-05-23T01:30:41.282Z,84.55
2023-05-23T01:35:34.228Z,85.25
2023-05-23T01:40:26.650Z,86.01
2023-05-23T01:45:21.852Z,85.15
2023-05-23T01:50:14.575Z,84.03
2023-05-23T01:55:09.862Z,81.76
2023-05-23T02:00:06.200Z,79.89
2023-05-23T02:05:05.460Z,79.11
2023-05-23T02:09:59.280Z,77.91
2023-05-23T02:14:55.675Z,77.19
2023-05-23T02:19:48.040Z,76.75
2023-05-23T02:24:40.491Z,76.21
2023-05-23T02:29:33.198Z,76.07
2023-05-23T02:34:25.808Z,75.92
2023-05-23T02:39:18.194Z,76.43
2023-05-23T02:44:12.479Z,76.03
2023-05-23T02:49:05.145Z,76.26
2023-05-23T02:54:01.555Z,75.71
2023-05-23T02:58:55.108Z,76.92
2023-05-23T03:03:47.384Z,77.69
2023-05-23T03:08:39.451Z,78.38
2023-05-23T03:13:33.329Z,78.06
2023-05-23T03:18:25.320Z,78.87
2023-05-23T03:23:18.970Z,79.13
2023-05-23T03:28:12.360Z,79.80
2023-05-23T03:33:04.578Z,79.69
2023-05-23T03:37:57.351Z,81.42
2023-05-23T03:43:01.492Z,84.93
2023-05-23T03:47:53.548Z,86.45
2023-05-23T03:52:46.566Z,86.61
2023-05-23T03:57:38.491Z,85.40
2023-05-23T04:02:31.693Z,86.02
2023-05-23T04:07:26.625Z,84.17
2023-05-23T04:12:21.330Z,82.49
2023-05-23T04:17:13.508Z,81.47
2023-05-23T04:22:06.032Z,80.20
2023-05-23T04:26:59.428Z,78.90
2023-05-23T04:31:51.448Z,79.21
2023-05-23T04:36:44.818Z,79.18
2023-05-23T04:41:40.585Z,78.87
2023-05-23T04:47:04.984Z,79.84
2023-05-23T04:52:28.533Z,79.55
2023-05-23T04:57:20.813Z,79.93
2023-05-23T05:07:31.444Z,80.39
2023-05-23T05:12:24.007Z,80.18
2023-05-23T05:17:18.562Z,80.05
2023-05-23T05:22:32.492Z,79.39
2023-05-23T05:27:27.152Z,79.33
2023-05-23T05:32:21.243Z,78.78
2023-05-23T05:37:15.094Z,79.04
2023-05-23T05:42:08.249Z,78.74
2023-05-23T05:47:00.883Z,78.47
2023-05-23T05:51:54.439Z,78.36
2023-05-23T05:56:47.346Z,79.34
2023-05-23T06:01:41.372Z,79.21
2023-05-23T06:06:47.952Z,79.04
2023-05-23T06:11:41.376Z,78.79
2023-05-23T06:16:36.112Z,78.58
2023-05-23T06:21:28.207Z,78.59
2023-05-23T06:26:21.274Z,78.26
2023-05-23T06:31:13.370Z,79.68
2023-05-23T06:36:05.741Z,78.82
2023-05-23T06:40:57.700Z,77.36
2023-05-23T06:45:51.849Z,78.43
2023-05-23T06:50:43.957Z,78.88
2023-05-23T06:55:37.746Z,78.33
2023-05-23T07:00:32.118Z,77.93
2023-05-23T07:05:47.764Z,73.43
2023-05-23T07:10:43.048Z,70.87
2023-05-23T07:15:54.553Z,68.48
2023-05-23T07:20:46.963Z,69.16
2023-05-23T07:26:00.607Z,69.43
2023-05-23T07:31:00.907Z,70.66
2023-05-23T07:35:53.584Z,71.48
2023-05-23T07:40:58.727Z,72.42
2023-05-23T07:45:59.599Z,71.98
2023-05-23T07:50:55.283Z,72.80
2023-05-23T07:55:49.652Z,70.41
2023-05-23T08:00:42.555Z,70.88
2023-05-23T08:05:47.645Z,70.44
2023-05-23T08:10:40.730Z,69.48
2023-05-23T08:15:40.919Z,68.28
2023-05-23T08:20:40.399Z,68.87
2023-05-23T08:25:35.045Z,68.19
2023-05-23T08:30:30.126Z,68.56
2023-05-23T08:35:25.652Z,68.72
2023-05-23T08:40:22.723Z,69.10
2023-05-23T08:45:30.598Z,70.25
2023-05-23T08:50:26.576Z,71.57
2023-05-23T08:55:20.231Z,72.66
2023-05-23T09:00:15.192Z,73.04
2023-05-23T09:05:09.888Z,72.09
2023-05-23T09:10:03.367Z,71.15
2023-05-23T09:14:57.892Z,69.70
2023-05-23T09:19:51.208Z,69.59
2023-05-23T09:24:53.430Z,72.32
2023-05-23T09:29:47.855Z,74.49
2023-05-23T09:34:58.723Z,77.81
2023-05-23T09:39:51.318Z,80.03
2023-05-23T09:44:44.817Z,76.87
2023-05-23T09:49:39.592Z,76.53
2023-05-23T09:54:31.822Z,75.05
2023-05-23T09:59:28.499Z,75.44
2023-05-23T10:04:25.751Z,75.72
2023-05-23T10:09:19.458Z,72.79
2023-05-23T10:14:13.882Z,69.76
2023-05-23T10:19:55.762Z,66.50
2023-05-23T10:24:48.597Z,65.21
2023-05-23T10:29:40.875Z,60.71
2023-05-23T10:34:48.528Z,56.69
2023-05-23T10:40:01.798Z,58.72
2023-05-23T10:45:20.965Z,59.04
2023-05-23T10:50:15.276Z,57.51
2023-05-23T10:55:20.107Z,58.36
2023-05-23T11:00:17.085Z,57.57
2023-05-23T11:05:21.821Z,58.43
2023-05-23T11:10:14.664Z,60.24
2023-05-23T11:15:21.707Z,60.24
2023-05-23T11:20:17.281Z,58.88
2023-05-23T11:25:11.617Z,57.76
2023-05-23T11:30:11.561Z,57.94
2023-05-23T11:35:08.735Z,57.92
2023-05-23T11:40:31.418Z,57.37
2023-05-23T11:45:25.314Z,55.45
2023-05-23T11:50:22.641Z,52.53
2023-05-23T11:55:15.310Z,49.25
2023-05-23T12:00:16.729Z,46.78
2023-05-23T12:05:22.383Z,45.60
2023-05-23T12:10:17.184Z,46.29
2023-05-23T12:15:11.765Z,47.95
2023-05-23T12:20:06.367Z,47.53
2023-05-23T12:25:00.851Z,44.69
2023-05-23T12:30:09.823Z,44.06
2023-05-23T12:35:02.404Z,46.80
2023-05-23T12:39:59.765Z,47.47
2023-05-23T12:44:57.500Z,45.44
2023-05-23T12:54:59.651Z,44.14
2023-05-23T12:59:54.064Z,44.88
2023-05-23T13:04:47.155Z,45.98
2023-05-23T13:09:40.195Z,46.01
2023-05-23T13:14:32.796Z,43.80
2023-05-23T13:19:26.416Z,42.99
2023-05-23T13:24:21.086Z,42.20
2023-05-23T13:29:14.184Z,42.28
2023-05-23T13:34:06.670Z,42.29
2023-05-23T13:39:00.443Z,40.66
2023-05-23T13:43:55.960Z,41.60
2023-05-23T13:48:48.096Z,40.91
2023-05-23T13:58:55.077Z,37.52
2023-05-23T14:03:49.053Z,37.46
2023-05-23T14:08:41.489Z,37.47
2023-05-23T14:13:34.633Z,37.68
2023-05-23T14:18:28.860Z,37.79
2023-05-23T14:23:21.330Z,38.25
2023-05-23T14:28:14.083Z,36.91
2023-05-23T14:33:08.531Z,38.26
2023-05-23T14:38:03.907Z,37.37
2023-05-23T14:42:58.641Z,37.03
2023-05-23T14:47:51.802Z,37.25
2023-05-23T14:52:43.905Z,37.21
2023-05-23T14:57:38.883Z,35.57
2023-05-23T15:02:33.943Z,35.04
2023-05-23T15:07:27.570Z,34.68
2023-05-23T15:12:21.205Z,35.38
2023-05-23T15:17:19.338Z,37.54
2023-05-23T15:22:29.868Z,38.21
2023-05-23T15:27:29.843Z,37.05
2023-05-23T15:37:18.969Z,36.20
2023-05-23T15:42:12.249Z,36.25
2023-05-23T15:47:04.927Z,36.81
2023-05-23T15:51:57.393Z,35.31
2023-05-23T15:56:49.852Z,34.97
2023-05-23T16:01:43.977Z,35.97
2023-05-23T16:06:46.410Z,36.62
2023-05-23T16:11:43.838Z,37.35
2023-05-23T16:16:39.384Z,37.25
2023-05-23T16:21:33.885Z,36.69
2023-05-23T16:26:29.700Z,37.15
2023-05-23T16:36:47.190Z,37.06
2023-05-23T16:41:42.032Z,37.29
2023-05-23T16:46:35.869Z,38.61
2023-05-23T16:51:34.499Z,39.47
2023-05-23T16:56:29.216Z,40.18
2023-05-23T17:01:28.152Z,40.55
2023-05-23T17:06:24.156Z,40.67
2023-05-23T17:11:26.152Z,40.80
2023-05-23T17:16:20.374Z,40.91
2023-05-23T17:38:50.312Z,42.59
2023-05-23T17:43:53.433Z,42.69
2023-05-23T17:48:52.971Z,42.52
2023-05-23T17:53:50.099Z,42.65
2023-05-23T17:58:47.199Z,42.43
2023-05-23T18:03:41.839Z,42.65
2023-05-23T18:08:38.154Z,42.88
2023-05-23T18:13:31.892Z,43.03
2023-05-23T18:18:24.804Z,43.63
2023-05-23T18:23:20.892Z,44.01
2023-05-23T18:28:16.212Z,44.37
2023-05-23T18:33:11.893Z,44.48
2023-05-23T18:38:05.861Z,44.80
2023-05-23T18:42:59.454Z,45.62
2023-05-23T18:47:52.199Z,46.36
2023-05-23T18:52:46.661Z,47.04
2023-05-23T18:57:38.966Z,47.51
2023-05-23T19:02:35.950Z,47.79
2023-05-23T19:07:34.217Z,48.26
2023-05-23T19:12:26.522Z,48.76
2023-05-23T19:17:24.916Z,48.65
2023-05-23T19:22:18.494Z,49.41
2023-05-23T19:27:13.922Z,50.60
2023-05-23T19:32:06.583Z,51.38
2023-05-23T19:37:01.899Z,51.62
2023-05-23T19:41:57.096Z,51.68
2023-05-23T19:46:50.155Z,52.30
2023-05-23T19:51:42.328Z,52.75
2023-05-23T19:56:36.545Z,52.85
2023-05-23T20:01:31.927Z,53.30
2023-05-23T20:06:26.139Z,53.87
2023-05-23T20:11:18.465Z,54.52
2023-05-23T20:16:12.946Z,54.21
2023-05-23T20:21:05.790Z,54.10
2023-05-23T20:26:00.928Z,54.08
2023-05-23T20:30:54.481Z,54.59
2023-05-23T20:35:52.946Z,55.37
2023-05-23T20:40:52.859Z,55.46
2023-05-23T20:45:45.241Z,55.59
2023-05-23T20:50:38.217Z,56.47
2023-05-23T20:55:37.343Z,55.57
2023-05-23T21:00:32.434Z,55.74
2023-05-23T21:05:25.049Z,55.30
2023-05-23T21:10:21.036Z,55.81
2023-05-23T21:15:14.064Z,55.56
2023-05-23T21:20:07.005Z,56.17
2023-05-23T21:25:03.823Z,56.06
2023-05-23T21:29:56.981Z,56.41
2023-05-23T21:34:50.067Z,56.49
2023-05-23T21:39:51.191Z,56.17
2023-05-23T21:44:45.594Z,56.31
2023-05-23T21:49:43.374Z,56.65
2023-05-23T21:54:36.909Z,56.92
2023-05-23T21:59:31.508Z,57.22
2023-05-23T22:04:27.725Z,57.12
2023-05-23T22:09:23.170Z,57.51
2023-05-23T22:14:20.158Z,57.77
2023-05-23T22:19:15.242Z,57.71
2023-05-23T22:24:10.908Z,58.16
2023-05-23T22:29:02.978Z,57.94
2023-05-23T22:33:58.170Z,57.92
2023-05-23T22:38:53.618Z,58.48
2023-05-23T22:43:47.289Z,59.63
2023-05-23T22:48:40.392Z,59.92
2023-05-23T22:53:32.484Z,59.91
2023-05-23T22:58:24.614Z,60.28
2023-05-23T23:03:16.973Z,60.60
2023-05-23T23:08:09.150Z,60.58
2023-05-23T23:13:03.351Z,61.07
2023-05-23T23:17:56.369Z,61.72
2023-05-23T23:22:48.689Z,61.99
2023-05-23T23:27:41.641Z,62.29
2023-05-23T23:32:34.526Z,62.77
2023-05-23T23:37:30.035Z,63.15
2023-05-23T23:42:22.167Z,62.82
2023-05-23T23:47:14.900Z,63.64
2023-05-23T23:52:10.041Z,63.83
2023-05-23T23:57:04.127Z,63.93
